sensor_id;sensor_type;location;lat;lon;timestamp;P1;durP1;ratioP1;P2;durP2;ratioP2
56541;SDS011;42438;53.174;6.730;2023-08-17T00:00:11;4.35;;;2.30;;
56541;SDS011;42438;53.174;6.730;2023-08-17T00:02:45;5.47;;;2.75;;
56541;SDS011;42438;53.174;6.730;2023-08-17T00:05:16;5.68;;;2.70;;
56541;SDS011;42438;53.174;6.730;2023-08-17T00:07:46;7.47;;;2.50;;
56541;SDS011;42438;53.174;6.730;2023-08-17T00:10:17;7.13;;;2.88;;
56541;SDS011;42438;53.174;6.730;2023-08-17T00:12:48;4.30;;;2.47;;
56541;SDS011;42438;53.174;6.730;2023-08-17T00:15:18;7.15;;;2.90;;
56541;SDS011;42438;53.174;6.730;2023-08-17T00:17:49;4.15;;;2.85;;
56541;SDS011;42438;53.174;6.730;2023-08-17T00:20:20;6.68;;;3.00;;
56541;SDS011;42438;53.174;6.730;2023-08-17T00:22:50;6.90;;;2.70;;
56541;SDS011;42438;53.174;6.730;2023-08-17T00:25:21;6.10;;;2.70;;
56541;SDS011;42438;53.174;6.730;2023-08-17T00:27:51;7.05;;;2.83;;
56541;SDS011;42438;53.174;6.730;2023-08-17T00:30:22;4.07;;;2.65;;
56541;SDS011;42438;53.174;6.730;2023-08-17T00:32:53;8.25;;;3.13;;
56541;SDS011;42438;53.174;6.730;2023-08-17T00:35:23;5.95;;;2.90;;
56541;SDS011;42438;53.174;6.730;2023-08-17T00:37:54;5.63;;;2.95;;
56541;SDS011;42438;53.174;6.730;2023-08-17T00:40:25;5.15;;;2.72;;
56541;SDS011;42438;53.174;6.730;2023-08-17T00:42:55;6.18;;;2.80;;
56541;SDS011;42438;53.174;6.730;2023-08-17T00:45:26;5.70;;;2.97;;
56541;SDS011;42438;53.174;6.730;2023-08-17T00:47:57;5.05;;;2.95;;
56541;SDS011;42438;53.174;6.730;2023-08-17T00:50:28;6.35;;;3.05;;
56541;SDS011;42438;53.174;6.730;2023-08-17T00:52:59;5.70;;;2.72;;
56541;SDS011;42438;53.174;6.730;2023-08-17T00:55:31;4.78;;;2.20;;
56541;SDS011;42438;53.174;6.730;2023-08-17T00:58:03;6.50;;;2.70;;
56541;SDS011;42438;53.174;6.730;2023-08-17T01:00:33;6.95;;;2.83;;
56541;SDS011;42438;53.174;6.730;2023-08-17T01:03:05;6.13;;;2.60;;
56541;SDS011;42438;53.174;6.730;2023-08-17T01:05:35;5.03;;;2.03;;
56541;SDS011;42438;53.174;6.730;2023-08-17T01:08:07;5.50;;;2.40;;
56541;SDS011;42438;53.174;6.730;2023-08-17T01:10:44;6.75;;;2.40;;
56541;SDS011;42438;53.174;6.730;2023-08-17T01:13:28;5.10;;;2.63;;
56541;SDS011;42438;53.174;6.730;2023-08-17T01:16:27;6.68;;;2.95;;
56541;SDS011;42438;53.174;6.730;2023-08-17T01:19:26;6.20;;;2.63;;
56541;SDS011;42438;53.174;6.730;2023-08-17T01:22:00;5.38;;;2.75;;
56541;SDS011;42438;53.174;6.730;2023-08-17T01:24:34;5.53;;;2.90;;
56541;SDS011;42438;53.174;6.730;2023-08-17T01:27:04;5.72;;;2.30;;
56541;SDS011;42438;53.174;6.730;2023-08-17T01:29:35;4.40;;;2.65;;
56541;SDS011;42438;53.174;6.730;2023-08-17T01:32:13;4.93;;;2.28;;
56541;SDS011;42438;53.174;6.730;2023-08-17T01:34:50;4.65;;;2.45;;
56541;SDS011;42438;53.174;6.730;2023-08-17T01:37:28;5.97;;;2.40;;
56541;SDS011;42438;53.174;6.730;2023-08-17T01:40:00;8.90;;;2.65;;
56541;SDS011;42438;53.174;6.730;2023-08-17T01:42:31;6.38;;;2.13;;
56541;SDS011;42438;53.174;6.730;2023-08-17T01:45:02;4.00;;;2.30;;
56541;SDS011;42438;53.174;6.730;2023-08-17T01:47:33;4.10;;;1.90;;
56541;SDS011;42438;53.174;6.730;2023-08-17T01:50:05;4.93;;;2.17;;
56541;SDS011;42438;53.174;6.730;2023-08-17T01:52:36;6.72;;;2.50;;
56541;SDS011;42438;53.174;6.730;2023-08-17T01:55:07;4.45;;;2.33;;
56541;SDS011;42438;53.174;6.730;2023-08-17T01:57:38;4.70;;;2.35;;
56541;SDS011;42438;53.174;6.730;2023-08-17T02:00:09;5.90;;;2.45;;
56541;SDS011;42438;53.174;6.730;2023-08-17T02:02:40;6.10;;;2.25;;
56541;SDS011;42438;53.174;6.730;2023-08-17T02:05:11;8.27;;;2.40;;
56541;SDS011;42438;53.174;6.730;2023-08-17T02:07:42;5.22;;;2.28;;
56541;SDS011;42438;53.174;6.730;2023-08-17T02:10:12;5.53;;;2.85;;
56541;SDS011;42438;53.174;6.730;2023-08-17T02:12:43;5.13;;;2.53;;
56541;SDS011;42438;53.174;6.730;2023-08-17T02:15:14;4.32;;;2.42;;
56541;SDS011;42438;53.174;6.730;2023-08-17T02:17:44;5.95;;;2.58;;
56541;SDS011;42438;53.174;6.730;2023-08-17T02:20:15;6.72;;;3.03;;
56541;SDS011;42438;53.174;6.730;2023-08-17T02:22:46;6.05;;;2.60;;
56541;SDS011;42438;53.174;6.730;2023-08-17T02:25:16;5.78;;;2.70;;
56541;SDS011;42438;53.174;6.730;2023-08-17T02:27:47;6.60;;;2.83;;
56541;SDS011;42438;53.174;6.730;2023-08-17T02:30:17;5.75;;;2.88;;
56541;SDS011;42438;53.174;6.730;2023-08-17T02:32:48;4.97;;;2.63;;
56541;SDS011;42438;53.174;6.730;2023-08-17T02:35:19;5.72;;;2.50;;
56541;SDS011;42438;53.174;6.730;2023-08-17T02:37:50;5.45;;;2.38;;
56541;SDS011;42438;53.174;6.730;2023-08-17T02:40:20;5.95;;;3.03;;
56541;SDS011;42438;53.174;6.730;2023-08-17T02:42:51;7.10;;;2.60;;
56541;SDS011;42438;53.174;6.730;2023-08-17T02:45:22;4.15;;;2.42;;
56541;SDS011;42438;53.174;6.730;2023-08-17T02:47:53;7.00;;;2.42;;
56541;SDS011;42438;53.174;6.730;2023-08-17T02:50:23;5.32;;;2.40;;
56541;SDS011;42438;53.174;6.730;2023-08-17T02:52:54;5.18;;;2.55;;
56541;SDS011;42438;53.174;6.730;2023-08-17T02:55:24;4.25;;;2.42;;
56541;SDS011;42438;53.174;6.730;2023-08-17T02:57:55;6.22;;;2.42;;
56541;SDS011;42438;53.174;6.730;2023-08-17T03:00:26;10.57;;;2.75;;
56541;SDS011;42438;53.174;6.730;2023-08-17T03:02:56;4.53;;;2.67;;
56541;SDS011;42438;53.174;6.730;2023-08-17T03:05:27;5.43;;;2.42;;
56541;SDS011;42438;53.174;6.730;2023-08-17T03:07:58;9.00;;;3.22;;
56541;SDS011;42438;53.174;6.730;2023-08-17T03:10:28;5.03;;;2.20;;
56541;SDS011;42438;53.174;6.730;2023-08-17T03:12:59;7.13;;;2.72;;
56541;SDS011;42438;53.174;6.730;2023-08-17T03:15:30;7.10;;;2.58;;
56541;SDS011;42438;53.174;6.730;2023-08-17T03:18:00;6.70;;;2.83;;
56541;SDS011;42438;53.174;6.730;2023-08-17T03:20:31;6.13;;;2.60;;
56541;SDS011;42438;53.174;6.730;2023-08-17T03:23:02;5.50;;;2.75;;
56541;SDS011;42438;53.174;6.730;2023-08-17T03:25:36;4.68;;;2.45;;
56541;SDS011;42438;53.174;6.730;2023-08-17T03:28:07;6.85;;;2.72;;
56541;SDS011;42438;53.174;6.730;2023-08-17T03:30:38;7.43;;;2.72;;
56541;SDS011;42438;53.174;6.730;2023-08-17T03:33:09;5.85;;;2.63;;
56541;SDS011;42438;53.174;6.730;2023-08-17T03:35:39;5.63;;;2.58;;
56541;SDS011;42438;53.174;6.730;2023-08-17T03:38:10;5.80;;;2.92;;
56541;SDS011;42438;53.174;6.730;2023-08-17T03:40:41;8.02;;;2.90;;
56541;SDS011;42438;53.174;6.730;2023-08-17T03:43:11;5.43;;;2.55;;
56541;SDS011;42438;53.174;6.730;2023-08-17T03:45:42;4.45;;;2.78;;
56541;SDS011;42438;53.174;6.730;2023-08-17T03:48:13;4.70;;;2.35;;
56541;SDS011;42438;53.174;6.730;2023-08-17T03:50:43;4.50;;;2.25;;
56541;SDS011;42438;53.174;6.730;2023-08-17T03:53:14;7.38;;;2.70;;
56541;SDS011;42438;53.174;6.730;2023-08-17T03:55:46;6.88;;;2.10;;
56541;SDS011;42438;53.174;6.730;2023-08-17T03:58:20;6.40;;;2.40;;
56541;SDS011;42438;53.174;6.730;2023-08-17T04:00:51;3.25;;;2.15;;
56541;SDS011;42438;53.174;6.730;2023-08-17T04:03:22;6.07;;;2.47;;
56541;SDS011;42438;53.174;6.730;2023-08-17T04:05:53;5.65;;;2.30;;
56541;SDS011;42438;53.174;6.730;2023-08-17T04:08:23;4.03;;;1.85;;
56541;SDS011;42438;53.174;6.730;2023-08-17T04:10:54;5.57;;;2.25;;
56541;SDS011;42438;53.174;6.730;2023-08-17T04:13:25;7.32;;;2.05;;
56541;SDS011;42438;53.174;6.730;2023-08-17T04:15:57;5.28;;;2.13;;
56541;SDS011;42438;53.174;6.730;2023-08-17T04:18:28;4.85;;;2.22;;
56541;SDS011;42438;53.174;6.730;2023-08-17T04:20:59;4.90;;;2.20;;
56541;SDS011;42438;53.174;6.730;2023-08-17T04:23:29;4.47;;;2.20;;
56541;SDS011;42438;53.174;6.730;2023-08-17T04:26:00;5.43;;;2.20;;
56541;SDS011;42438;53.174;6.730;2023-08-17T04:28:31;7.35;;;2.08;;
56541;SDS011;42438;53.174;6.730;2023-08-17T04:31:01;4.15;;;2.03;;
56541;SDS011;42438;53.174;6.730;2023-08-17T04:33:32;5.30;;;2.03;;
56541;SDS011;42438;53.174;6.730;2023-08-17T04:36:03;6.25;;;2.15;;
56541;SDS011;42438;53.174;6.730;2023-08-17T04:38:33;3.95;;;2.17;;
56541;SDS011;42438;53.174;6.730;2023-08-17T04:41:04;4.97;;;1.90;;
56541;SDS011;42438;53.174;6.730;2023-08-17T04:43:35;5.72;;;2.20;;
56541;SDS011;42438;53.174;6.730;2023-08-17T04:46:05;7.30;;;2.20;;
56541;SDS011;42438;53.174;6.730;2023-08-17T04:48:36;6.00;;;1.98;;
56541;SDS011;42438;53.174;6.730;2023-08-17T04:51:07;3.92;;;2.08;;
56541;SDS011;42438;53.174;6.730;2023-08-17T04:53:38;5.18;;;2.20;;
56541;SDS011;42438;53.174;6.730;2023-08-17T04:56:09;6.45;;;2.35;;
56541;SDS011;42438;53.174;6.730;2023-08-17T04:58:40;5.78;;;2.15;;
56541;SDS011;42438;53.174;6.730;2023-08-17T05:01:11;5.63;;;2.50;;
56541;SDS011;42438;53.174;6.730;2023-08-17T05:03:41;5.00;;;2.10;;
56541;SDS011;42438;53.174;6.730;2023-08-17T05:06:12;5.47;;;2.03;;
56541;SDS011;42438;53.174;6.730;2023-08-17T05:08:43;4.82;;;1.75;;
56541;SDS011;42438;53.174;6.730;2023-08-17T05:11:14;5.22;;;2.10;;
56541;SDS011;42438;53.174;6.730;2023-08-17T05:13:44;4.97;;;2.10;;
56541;SDS011;42438;53.174;6.730;2023-08-17T05:16:15;8.55;;;2.15;;
56541;SDS011;42438;53.174;6.730;2023-08-17T05:18:46;5.68;;;2.40;;
56541;SDS011;42438;53.174;6.730;2023-08-17T05:21:16;5.80;;;2.10;;
56541;SDS011;42438;53.174;6.730;2023-08-17T05:23:47;3.33;;;2.00;;
56541;SDS011;42438;53.174;6.730;2023-08-17T05:26:18;4.53;;;1.90;;
56541;SDS011;42438;53.174;6.730;2023-08-17T05:28:48;5.00;;;2.53;;
56541;SDS011;42438;53.174;6.730;2023-08-17T05:31:19;4.97;;;2.38;;
56541;SDS011;42438;53.174;6.730;2023-08-17T05:33:50;6.55;;;2.42;;
56541;SDS011;42438;53.174;6.730;2023-08-17T05:36:20;4.93;;;2.22;;
56541;SDS011;42438;53.174;6.730;2023-08-17T05:38:51;6.32;;;2.40;;
56541;SDS011;42438;53.174;6.730;2023-08-17T05:41:22;5.03;;;2.08;;
56541;SDS011;42438;53.174;6.730;2023-08-17T05:43:52;4.80;;;2.05;;
56541;SDS011;42438;53.174;6.730;2023-08-17T05:46:23;4.65;;;2.22;;
56541;SDS011;42438;53.174;6.730;2023-08-17T05:48:54;6.43;;;2.60;;
56541;SDS011;42438;53.174;6.730;2023-08-17T05:51:24;7.38;;;2.35;;
56541;SDS011;42438;53.174;6.730;2023-08-17T05:53:55;4.35;;;2.30;;
56541;SDS011;42438;53.174;6.730;2023-08-17T05:56:26;6.25;;;2.20;;
56541;SDS011;42438;53.174;6.730;2023-08-17T05:58:58;6.13;;;2.03;;
56541;SDS011;42438;53.174;6.730;2023-08-17T06:01:28;8.45;;;2.55;;
56541;SDS011;42438;53.174;6.730;2023-08-17T06:03:59;5.35;;;1.92;;
56541;SDS011;42438;53.174;6.730;2023-08-17T06:06:30;5.78;;;2.30;;
56541;SDS011;42438;53.174;6.730;2023-08-17T06:09:00;4.05;;;2.20;;
56541;SDS011;42438;53.174;6.730;2023-08-17T06:11:31;4.72;;;2.20;;
56541;SDS011;42438;53.174;6.730;2023-08-17T06:14:02;6.93;;;2.10;;
56541;SDS011;42438;53.174;6.730;2023-08-17T06:16:33;6.95;;;2.50;;
56541;SDS011;42438;53.174;6.730;2023-08-17T06:19:04;10.75;;;2.47;;
56541;SDS011;42438;53.174;6.730;2023-08-17T06:21:34;6.68;;;2.00;;
56541;SDS011;42438;53.174;6.730;2023-08-17T06:24:05;4.78;;;2.22;;
56541;SDS011;42438;53.174;6.730;2023-08-17T06:26:36;7.10;;;2.65;;
56541;SDS011;42438;53.174;6.730;2023-08-17T06:29:07;4.97;;;2.00;;
56541;SDS011;42438;53.174;6.730;2023-08-17T06:31:37;5.22;;;1.83;;
56541;SDS011;42438;53.174;6.730;2023-08-17T06:34:08;6.13;;;1.80;;
56541;SDS011;42438;53.174;6.730;2023-08-17T06:36:38;5.82;;;2.00;;
56541;SDS011;42438;53.174;6.730;2023-08-17T06:39:09;5.50;;;1.88;;
56541;SDS011;42438;53.174;6.730;2023-08-17T06:41:40;6.07;;;1.83;;
56541;SDS011;42438;53.174;6.730;2023-08-17T06:44:11;4.43;;;2.08;;
56541;SDS011;42438;53.174;6.730;2023-08-17T06:46:41;5.75;;;2.38;;
56541;SDS011;42438;53.174;6.730;2023-08-17T06:49:12;6.38;;;1.80;;
56541;SDS011;42438;53.174;6.730;2023-08-17T06:51:43;3.85;;;1.60;;
56541;SDS011;42438;53.174;6.730;2023-08-17T06:54:13;4.50;;;1.73;;
56541;SDS011;42438;53.174;6.730;2023-08-17T06:56:44;3.83;;;1.55;;
56541;SDS011;42438;53.174;6.730;2023-08-17T06:59:15;3.67;;;1.80;;
56541;SDS011;42438;53.174;6.730;2023-08-17T07:01:46;4.18;;;1.33;;
56541;SDS011;42438;53.174;6.730;2023-08-17T07:04:17;7.55;;;1.70;;
56541;SDS011;42438;53.174;6.730;2023-08-17T07:06:48;4.63;;;1.45;;
56541;SDS011;42438;53.174;6.730;2023-08-17T07:09:19;3.33;;;1.55;;
56541;SDS011;42438;53.174;6.730;2023-08-17T07:11:51;7.32;;;1.63;;
56541;SDS011;42438;53.174;6.730;2023-08-17T07:14:21;3.65;;;1.40;;
56541;SDS011;42438;53.174;6.730;2023-08-17T07:16:52;4.70;;;1.55;;
56541;SDS011;42438;53.174;6.730;2023-08-17T07:19:23;7.82;;;1.55;;
56541;SDS011;42438;53.174;6.730;2023-08-17T07:21:53;3.95;;;1.67;;
56541;SDS011;42438;53.174;6.730;2023-08-17T07:24:24;4.45;;;1.42;;
56541;SDS011;42438;53.174;6.730;2023-08-17T07:26:55;6.63;;;1.85;;
56541;SDS011;42438;53.174;6.730;2023-08-17T07:29:25;3.03;;;1.20;;
56541;SDS011;42438;53.174;6.730;2023-08-17T07:31:56;4.25;;;1.75;;
56541;SDS011;42438;53.174;6.730;2023-08-17T07:34:31;3.60;;;1.60;;
56541;SDS011;42438;53.174;6.730;2023-08-17T07:37:03;4.68;;;1.40;;
56541;SDS011;42438;53.174;6.730;2023-08-17T07:42:05;2.90;;;1.70;;
56541;SDS011;42438;53.174;6.730;2023-08-17T07:44:36;6.05;;;1.30;;
56541;SDS011;42438;53.174;6.730;2023-08-17T07:47:09;4.60;;;1.40;;
56541;SDS011;42438;53.174;6.730;2023-08-17T07:49:39;3.80;;;1.20;;
56541;SDS011;42438;53.174;6.730;2023-08-17T07:52:10;3.65;;;1.27;;
56541;SDS011;42438;53.174;6.730;2023-08-17T07:54:41;2.45;;;1.10;;
56541;SDS011;42438;53.174;6.730;2023-08-17T07:57:11;6.18;;;1.45;;
56541;SDS011;42438;53.174;6.730;2023-08-17T07:59:42;4.80;;;1.63;;
56541;SDS011;42438;53.174;6.730;2023-08-17T08:02:13;5.10;;;1.70;;
56541;SDS011;42438;53.174;6.730;2023-08-17T08:04:43;3.90;;;1.20;;
56541;SDS011;42438;53.174;6.730;2023-08-17T08:07:14;3.53;;;1.42;;
56541;SDS011;42438;53.174;6.730;2023-08-17T08:09:45;2.20;;;1.17;;
56541;SDS011;42438;53.174;6.730;2023-08-17T08:12:15;2.80;;;1.40;;
56541;SDS011;42438;53.174;6.730;2023-08-17T08:14:46;3.28;;;1.58;;
56541;SDS011;42438;53.174;6.730;2023-08-17T08:17:18;3.67;;;1.52;;
56541;SDS011;42438;53.174;6.730;2023-08-17T08:19:49;5.32;;;1.50;;
56541;SDS011;42438;53.174;6.730;2023-08-17T08:22:21;3.28;;;1.30;;
56541;SDS011;42438;53.174;6.730;2023-08-17T08:24:51;4.10;;;1.73;;
56541;SDS011;42438;53.174;6.730;2023-08-17T08:27:22;5.20;;;1.25;;
56541;SDS011;42438;53.174;6.730;2023-08-17T08:29:53;4.38;;;1.50;;
56541;SDS011;42438;53.174;6.730;2023-08-17T08:32:24;3.42;;;1.35;;
56541;SDS011;42438;53.174;6.730;2023-08-17T08:34:54;5.63;;;1.60;;
56541;SDS011;42438;53.174;6.730;2023-08-17T08:37:25;4.40;;;1.45;;
56541;SDS011;42438;53.174;6.730;2023-08-17T08:39:55;4.88;;;1.58;;
56541;SDS011;42438;53.174;6.730;2023-08-17T08:42:26;3.65;;;1.40;;
56541;SDS011;42438;53.174;6.730;2023-08-17T08:44:57;4.90;;;1.63;;
56541;SDS011;42438;53.174;6.730;2023-08-17T08:47:28;2.95;;;1.35;;
56541;SDS011;42438;53.174;6.730;2023-08-17T08:50:04;4.80;;;1.55;;
56541;SDS011;42438;53.174;6.730;2023-08-17T08:52:36;3.63;;;1.23;;
56541;SDS011;42438;53.174;6.730;2023-08-17T08:55:15;3.65;;;1.35;;
56541;SDS011;42438;53.174;6.730;2023-08-17T08:57:48;2.85;;;1.40;;
56541;SDS011;42438;53.174;6.730;2023-08-17T09:00:20;4.68;;;1.50;;
56541;SDS011;42438;53.174;6.730;2023-08-17T09:02:51;2.42;;;1.33;;
56541;SDS011;42438;53.174;6.730;2023-08-17T09:05:23;4.20;;;1.85;;
56541;SDS011;42438;53.174;6.730;2023-08-17T09:07:54;3.05;;;1.30;;
56541;SDS011;42438;53.174;6.730;2023-08-17T09:10:26;3.83;;;1.25;;
56541;SDS011;42438;53.174;6.730;2023-08-17T09:12:57;4.28;;;1.40;;
56541;SDS011;42438;53.174;6.730;2023-08-17T09:15:28;6.93;;;1.75;;
56541;SDS011;42438;53.174;6.730;2023-08-17T09:17:58;3.53;;;1.50;;
56541;SDS011;42438;53.174;6.730;2023-08-17T09:20:45;6.13;;;1.77;;
56541;SDS011;42438;53.174;6.730;2023-08-17T09:23:18;5.38;;;1.48;;
56541;SDS011;42438;53.174;6.730;2023-08-17T09:25:50;3.20;;;1.50;;
56541;SDS011;42438;53.174;6.730;2023-08-17T09:28:30;2.40;;;1.27;;
56541;SDS011;42438;53.174;6.730;2023-08-17T09:31:01;7.40;;;1.58;;
56541;SDS011;42438;53.174;6.730;2023-08-17T09:33:35;6.05;;;1.50;;
56541;SDS011;42438;53.174;6.730;2023-08-17T09:36:06;3.40;;;1.70;;
56541;SDS011;42438;53.174;6.730;2023-08-17T09:38:39;8.93;;;1.73;;
56541;SDS011;42438;53.174;6.730;2023-08-17T09:41:10;4.40;;;1.83;;
56541;SDS011;42438;53.174;6.730;2023-08-17T09:43:44;4.25;;;1.40;;
56541;SDS011;42438;53.174;6.730;2023-08-17T09:46:16;4.80;;;1.57;;
56541;SDS011;42438;53.174;6.730;2023-08-17T09:48:47;3.95;;;1.33;;
56541;SDS011;42438;53.174;6.730;2023-08-17T09:51:18;4.47;;;1.50;;
56541;SDS011;42438;53.174;6.730;2023-08-17T09:53:52;4.32;;;1.40;;
56541;SDS011;42438;53.174;6.730;2023-08-17T09:56:25;4.05;;;1.63;;
56541;SDS011;42438;53.174;6.730;2023-08-17T09:58:57;4.20;;;1.40;;
56541;SDS011;42438;53.174;6.730;2023-08-17T10:01:28;4.95;;;1.55;;
56541;SDS011;42438;53.174;6.730;2023-08-17T10:03:59;4.97;;;1.60;;
56541;SDS011;42438;53.174;6.730;2023-08-17T10:06:32;3.85;;;1.50;;
56541;SDS011;42438;53.174;6.730;2023-08-17T10:09:04;3.75;;;1.70;;
56541;SDS011;42438;53.174;6.730;2023-08-17T10:11:36;6.65;;;1.98;;
56541;SDS011;42438;53.174;6.730;2023-08-17T10:14:12;3.45;;;1.38;;
56541;SDS011;42438;53.174;6.730;2023-08-17T10:16:49;3.92;;;1.55;;
56541;SDS011;42438;53.174;6.730;2023-08-17T10:19:36;4.25;;;1.40;;
56541;SDS011;42438;53.174;6.730;2023-08-17T10:25:03;4.07;;;1.80;;
56541;SDS011;42438;53.174;6.730;2023-08-17T10:27:35;4.53;;;1.55;;
56541;SDS011;42438;53.174;6.730;2023-08-17T10:30:07;3.80;;;1.50;;
56541;SDS011;42438;53.174;6.730;2023-08-17T10:32:40;4.40;;;1.33;;
56541;SDS011;42438;53.174;6.730;2023-08-17T10:35:15;5.55;;;1.60;;
56541;SDS011;42438;53.174;6.730;2023-08-17T10:37:46;5.43;;;1.52;;
56541;SDS011;42438;53.174;6.730;2023-08-17T10:40:17;5.35;;;1.65;;
56541;SDS011;42438;53.174;6.730;2023-08-17T10:42:56;3.92;;;1.50;;
56541;SDS011;42438;53.174;6.730;2023-08-17T10:50:36;4.22;;;1.55;;
56541;SDS011;42438;53.174;6.730;2023-08-17T10:53:10;4.47;;;1.83;;
56541;SDS011;42438;53.174;6.730;2023-08-17T10:55:44;5.30;;;1.77;;
56541;SDS011;42438;53.174;6.730;2023-08-17T10:58:22;6.97;;;1.90;;
56541;SDS011;42438;53.174;6.730;2023-08-17T11:00:56;4.15;;;1.98;;
56541;SDS011;42438;53.174;6.730;2023-08-17T11:03:27;3.53;;;1.70;;
56541;SDS011;42438;53.174;6.730;2023-08-17T11:05:58;4.03;;;1.70;;
56541;SDS011;42438;53.174;6.730;2023-08-17T11:08:51;4.28;;;1.95;;
56541;SDS011;42438;53.174;6.730;2023-08-17T11:11:24;3.72;;;1.70;;
56541;SDS011;42438;53.174;6.730;2023-08-17T11:14:01;4.50;;;1.83;;
56541;SDS011;42438;53.174;6.730;2023-08-17T11:16:32;6.90;;;1.90;;
56541;SDS011;42438;53.174;6.730;2023-08-17T11:19:03;3.50;;;1.80;;
56541;SDS011;42438;53.174;6.730;2023-08-17T11:21:33;4.65;;;1.63;;
56541;SDS011;42438;53.174;6.730;2023-08-17T11:24:04;3.72;;;1.92;;
56541;SDS011;42438;53.174;6.730;2023-08-17T11:26:39;3.22;;;1.58;;
56541;SDS011;42438;53.174;6.730;2023-08-17T11:29:10;4.18;;;1.60;;
56541;SDS011;42438;53.174;6.730;2023-08-17T11:31:41;4.40;;;2.00;;
56541;SDS011;42438;53.174;6.730;2023-08-17T11:34:14;5.80;;;1.75;;
56541;SDS011;42438;53.174;6.730;2023-08-17T11:36:45;3.97;;;2.42;;
56541;SDS011;42438;53.174;6.730;2023-08-17T11:39:16;5.93;;;2.15;;
56541;SDS011;42438;53.174;6.730;2023-08-17T11:41:50;5.30;;;2.65;;
56541;SDS011;42438;53.174;6.730;2023-08-17T11:44:22;5.30;;;2.30;;
56541;SDS011;42438;53.174;6.730;2023-08-17T11:46:53;5.47;;;2.40;;
56541;SDS011;42438;53.174;6.730;2023-08-17T11:49:23;7.15;;;2.25;;
56541;SDS011;42438;53.174;6.730;2023-08-17T11:51:54;4.43;;;2.30;;
56541;SDS011;42438;53.174;6.730;2023-08-17T11:54:25;4.55;;;2.03;;
56541;SDS011;42438;53.174;6.730;2023-08-17T11:56:55;4.80;;;2.28;;
56541;SDS011;42438;53.174;6.730;2023-08-17T11:59:27;3.42;;;1.83;;
56541;SDS011;42438;53.174;6.730;2023-08-17T12:01:58;4.03;;;2.38;;
56541;SDS011;42438;53.174;6.730;2023-08-17T12:04:31;5.80;;;2.03;;
56541;SDS011;42438;53.174;6.730;2023-08-17T12:07:03;7.15;;;2.53;;
56541;SDS011;42438;53.174;6.730;2023-08-17T12:09:35;3.22;;;1.60;;
56541;SDS011;42438;53.174;6.730;2023-08-17T12:12:06;3.53;;;2.20;;
56541;SDS011;42438;53.174;6.730;2023-08-17T12:14:39;4.07;;;2.20;;
56541;SDS011;42438;53.174;6.730;2023-08-17T12:17:19;4.47;;;2.03;;
56541;SDS011;42438;53.174;6.730;2023-08-17T12:19:50;2.97;;;1.98;;
56541;SDS011;42438;53.174;6.730;2023-08-17T12:22:25;4.97;;;2.38;;
56541;SDS011;42438;53.174;6.730;2023-08-17T12:24:56;4.28;;;2.00;;
56541;SDS011;42438;53.174;6.730;2023-08-17T12:27:26;5.30;;;2.20;;
56541;SDS011;42438;53.174;6.730;2023-08-17T12:29:57;4.30;;;2.30;;
56541;SDS011;42438;53.174;6.730;2023-08-17T12:32:27;3.70;;;2.42;;
56541;SDS011;42438;53.174;6.730;2023-08-17T12:34:58;3.95;;;2.03;;
56541;SDS011;42438;53.174;6.730;2023-08-17T12:37:29;3.58;;;2.05;;
56541;SDS011;42438;53.174;6.730;2023-08-17T12:39:59;5.70;;;2.20;;
56541;SDS011;42438;53.174;6.730;2023-08-17T12:42:30;4.88;;;2.28;;
56541;SDS011;42438;53.174;6.730;2023-08-17T12:45:01;4.95;;;2.40;;
56541;SDS011;42438;53.174;6.730;2023-08-17T12:47:31;5.93;;;2.38;;
56541;SDS011;42438;53.174;6.730;2023-08-17T12:50:02;6.63;;;2.42;;
56541;SDS011;42438;53.174;6.730;2023-08-17T12:52:34;4.90;;;2.92;;
56541;SDS011;42438;53.174;6.730;2023-08-17T12:55:05;5.90;;;2.30;;
56541;SDS011;42438;53.174;6.730;2023-08-17T12:57:35;4.07;;;2.20;;
56541;SDS011;42438;53.174;6.730;2023-08-17T13:00:06;4.65;;;2.22;;
56541;SDS011;42438;53.174;6.730;2023-08-17T13:02:38;5.72;;;2.28;;
56541;SDS011;42438;53.174;6.730;2023-08-17T13:05:09;5.65;;;2.72;;
56541;SDS011;42438;53.174;6.730;2023-08-17T13:07:40;4.45;;;2.90;;
56541;SDS011;42438;53.174;6.730;2023-08-17T13:10:11;5.20;;;2.88;;
56541;SDS011;42438;53.174;6.730;2023-08-17T13:12:41;6.38;;;2.45;;
56541;SDS011;42438;53.174;6.730;2023-08-17T13:15:12;3.75;;;2.47;;
56541;SDS011;42438;53.174;6.730;2023-08-17T13:17:44;3.97;;;2.33;;
56541;SDS011;42438;53.174;6.730;2023-08-17T13:20:15;4.90;;;2.20;;
56541;SDS011;42438;53.174;6.730;2023-08-17T13:22:46;5.32;;;2.70;;
56541;SDS011;42438;53.174;6.730;2023-08-17T13:25:17;4.00;;;2.30;;
56541;SDS011;42438;53.174;6.730;2023-08-17T13:27:47;5.75;;;2.35;;
56541;SDS011;42438;53.174;6.730;2023-08-17T13:30:18;4.47;;;2.63;;
56541;SDS011;42438;53.174;6.730;2023-08-17T13:32:49;5.25;;;2.63;;
56541;SDS011;42438;53.174;6.730;2023-08-17T13:35:20;5.03;;;2.45;;
56541;SDS011;42438;53.174;6.730;2023-08-17T13:37:51;5.10;;;2.50;;
56541;SDS011;42438;53.174;6.730;2023-08-17T13:40:23;4.75;;;2.40;;
56541;SDS011;42438;53.174;6.730;2023-08-17T13:42:54;3.60;;;2.38;;
56541;SDS011;42438;53.174;6.730;2023-08-17T13:45:25;4.00;;;2.58;;
56541;SDS011;42438;53.174;6.730;2023-08-17T13:47:56;4.63;;;2.60;;
56541;SDS011;42438;53.174;6.730;2023-08-17T13:50:27;5.53;;;2.30;;
56541;SDS011;42438;53.174;6.730;2023-08-17T13:52:57;6.93;;;2.70;;
56541;SDS011;42438;53.174;6.730;2023-08-17T13:55:30;7.22;;;2.72;;
56541;SDS011;42438;53.174;6.730;2023-08-17T13:58:01;6.82;;;2.50;;
56541;SDS011;42438;53.174;6.730;2023-08-17T14:00:32;5.07;;;2.20;;
56541;SDS011;42438;53.174;6.730;2023-08-17T14:03:03;6.18;;;2.65;;
56541;SDS011;42438;53.174;6.730;2023-08-17T14:05:34;3.20;;;2.10;;
56541;SDS011;42438;53.174;6.730;2023-08-17T14:08:05;5.00;;;2.40;;
56541;SDS011;42438;53.174;6.730;2023-08-17T14:10:36;3.53;;;2.40;;
56541;SDS011;42438;53.174;6.730;2023-08-17T14:13:07;3.30;;;2.42;;
56541;SDS011;42438;53.174;6.730;2023-08-17T14:15:38;5.10;;;3.00;;
56541;SDS011;42438;53.174;6.730;2023-08-17T14:18:08;5.90;;;2.88;;
56541;SDS011;42438;53.174;6.730;2023-08-17T14:20:39;3.35;;;2.63;;
56541;SDS011;42438;53.174;6.730;2023-08-17T14:23:09;5.43;;;3.03;;
56541;SDS011;42438;53.174;6.730;2023-08-17T14:25:40;6.18;;;3.30;;
56541;SDS011;42438;53.174;6.730;2023-08-17T14:28:11;5.95;;;2.80;;
56541;SDS011;42438;53.174;6.730;2023-08-17T14:30:41;5.20;;;3.05;;
56541;SDS011;42438;53.174;6.730;2023-08-17T14:33:12;5.28;;;3.08;;
56541;SDS011;42438;53.174;6.730;2023-08-17T14:35:45;9.10;;;3.58;;
56541;SDS011;42438;53.174;6.730;2023-08-17T14:38:16;4.68;;;3.53;;
56541;SDS011;42438;53.174;6.730;2023-08-17T14:40:47;5.28;;;3.55;;
56541;SDS011;42438;53.174;6.730;2023-08-17T14:43:18;4.82;;;3.53;;
56541;SDS011;42438;53.174;6.730;2023-08-17T14:45:49;5.85;;;3.40;;
56541;SDS011;42438;53.174;6.730;2023-08-17T14:48:19;7.28;;;3.50;;
56541;SDS011;42438;53.174;6.730;2023-08-17T14:50:50;6.57;;;3.67;;
56541;SDS011;42438;53.174;6.730;2023-08-17T14:53:21;6.00;;;3.75;;
56541;SDS011;42438;53.174;6.730;2023-08-17T14:55:52;6.90;;;3.20;;
56541;SDS011;42438;53.174;6.730;2023-08-17T14:58:22;5.90;;;3.72;;
56541;SDS011;42438;53.174;6.730;2023-08-17T15:00:53;4.82;;;3.15;;
56541;SDS011;42438;53.174;6.730;2023-08-17T15:03:24;7.68;;;3.72;;
56541;SDS011;42438;53.174;6.730;2023-08-17T15:05:54;5.50;;;3.33;;
56541;SDS011;42438;53.174;6.730;2023-08-17T15:08:25;7.43;;;3.30;;
56541;SDS011;42438;53.174;6.730;2023-08-17T15:10:56;6.25;;;3.65;;
56541;SDS011;42438;53.174;6.730;2023-08-17T15:13:31;5.30;;;3.33;;
56541;SDS011;42438;53.174;6.730;2023-08-17T15:16:03;4.97;;;3.50;;
56541;SDS011;42438;53.174;6.730;2023-08-17T15:18:34;10.15;;;3.83;;
56541;SDS011;42438;53.174;6.730;2023-08-17T15:21:04;7.10;;;3.63;;
56541;SDS011;42438;53.174;6.730;2023-08-17T15:23:35;5.97;;;3.10;;